createdAt,value
2018-10-12T00:04:15.584Z,21.96
2018-10-12T00:09:19.036Z,21.91
2018-10-12T00:14:22.489Z,21.92
2018-10-12T00:19:26.238Z,21.89
2018-10-12T00:24:29.673Z,21.85
2018-10-12T00:29:33.308Z,21.85
2018-10-12T00:34:36.742Z,21.83
2018-10-12T00:39:40.184Z,21.77
2018-10-12T00:44:43.672Z,21.80
2018-10-12T00:49:47.137Z,21.77
2018-10-12T00:54:50.576Z,21.74
2018-10-12T00:59:54.017Z,21.70
2018-10-12T01:04:57.491Z,21.77
2018-10-12T01:10:00.944Z,21.67
2018-10-12T01:15:04.895Z,21.73
2018-10-12T01:20:08.929Z,21.65
2018-10-12T01:25:13.353Z,21.65
2018-10-12T01:30:16.856Z,21.64
2018-10-12T01:35:20.357Z,21.66
2018-10-12T01:40:23.902Z,21.66
2018-10-12T01:45:27.394Z,21.68
2018-10-12T01:50:30.872Z,21.70
2018-10-12T02:00:36.881Z,21.73
2018-10-12T02:05:40.499Z,21.76
2018-10-12T02:10:44.060Z,21.75
2018-10-12T02:15:47.780Z,21.75
2018-10-12T02:20:51.276Z,21.78
2018-10-12T02:25:54.751Z,21.79
2018-10-12T02:30:58.229Z,21.78
2018-10-12T02:36:01.709Z,21.82
2018-10-12T02:41:05.196Z,21.81
2018-10-12T02:46:08.716Z,21.82
2018-10-12T02:51:12.429Z,21.88
2018-10-12T02:56:21.266Z,21.85
2018-10-12T03:01:24.722Z,21.82
2018-10-12T03:06:28.185Z,21.80
2018-10-12T03:11:31.697Z,21.80
2018-10-12T03:16:35.157Z,21.77
2018-10-12T03:21:38.616Z,21.75
2018-10-12T03:26:42.064Z,21.72
2018-10-12T03:31:45.517Z,21.77
2018-10-12T03:36:48.969Z,21.66
2018-10-12T03:41:52.418Z,21.64
2018-10-12T03:46:55.876Z,21.63
2018-10-12T03:51:59.403Z,21.67
2018-10-12T03:57:02.819Z,21.70
2018-10-12T04:02:06.269Z,21.64
2018-10-12T04:07:09.729Z,21.66
2018-10-12T04:12:13.174Z,21.61
2018-10-12T04:17:16.616Z,21.62
2018-10-12T04:22:23.354Z,21.61
2018-10-12T04:27:26.808Z,21.61
2018-10-12T04:32:30.267Z,21.59
2018-10-12T04:37:33.895Z,21.56
2018-10-12T04:42:37.365Z,21.55
2018-10-12T04:47:40.832Z,21.55
2018-10-12T04:52:44.264Z,21.55
2018-10-12T04:57:47.704Z,21.54
2018-10-12T05:08:07.543Z,21.53
2018-10-12T05:13:10.978Z,21.52
2018-10-12T05:18:14.412Z,21.48
2018-10-12T05:23:17.897Z,21.44
2018-10-12T05:28:21.378Z,21.41
2018-10-12T05:33:24.878Z,21.37
2018-10-12T05:38:29.636Z,21.35
2018-10-12T05:43:33.226Z,21.35
2018-10-12T05:48:47.910Z,21.34
2018-10-12T05:53:52.028Z,21.32
2018-10-12T05:58:55.466Z,21.32
2018-10-12T06:03:59.196Z,21.32
2018-10-12T06:09:02.640Z,21.30
2018-10-12T06:14:06.096Z,21.31
2018-10-12T06:19:09.529Z,21.31
2018-10-12T06:24:12.986Z,21.29
2018-10-12T06:29:16.465Z,21.30
2018-10-12T06:34:19.920Z,21.29
2018-10-12T06:39:23.400Z,21.28
2018-10-12T06:44:26.857Z,21.27
2018-10-12T06:49:30.309Z,21.26
2018-10-12T06:54:33.751Z,21.26
2018-10-12T06:59:37.189Z,21.26
2018-10-12T07:04:40.624Z,21.27
2018-10-12T07:09:44.124Z,21.29
2018-10-12T07:14:47.581Z,21.30
2018-10-12T07:19:51.020Z,19.82
2018-10-12T07:24:54.464Z,19.46
2018-10-12T07:29:57.917Z,19.32
2018-10-12T07:35:01.374Z,19.28
2018-10-12T07:40:06.129Z,19.27
2018-10-12T07:45:09.621Z,19.31
2018-10-12T07:50:13.130Z,19.30
2018-10-12T07:55:16.596Z,19.31
2018-10-12T08:00:20.210Z,19.44
2018-10-12T08:05:23.661Z,19.38
2018-10-12T08:10:27.114Z,19.58
2018-10-12T08:15:30.561Z,19.66
2018-10-12T08:20:34.164Z,20.24
2018-10-12T08:25:37.485Z,20.47
2018-10-12T08:30:40.917Z,20.54
2018-10-12T08:35:44.365Z,20.60
2018-10-12T08:40:47.800Z,20.66
2018-10-12T08:45:51.271Z,20.68
2018-10-12T08:50:54.724Z,20.72
2018-10-12T08:55:58.192Z,20.75
2018-10-12T09:01:01.629Z,20.78
2018-10-12T09:06:05.081Z,20.83
2018-10-12T09:11:08.555Z,20.87
2018-10-12T09:16:12.039Z,20.90
2018-10-12T09:21:15.454Z,20.92
2018-10-12T09:26:18.897Z,20.92
2018-10-12T09:31:22.350Z,20.93
2018-10-12T09:36:25.863Z,20.96
2018-10-12T09:41:29.264Z,20.97
2018-10-12T09:46:32.724Z,20.98
2018-10-12T09:51:36.148Z,21.00
2018-10-12T09:56:39.617Z,20.99
2018-10-12T10:01:48.270Z,21.01
2018-10-12T10:06:51.753Z,21.02
2018-10-12T10:11:55.205Z,21.05
2018-10-12T10:16:58.650Z,21.14
2018-10-12T10:22:02.245Z,21.16
2018-10-12T10:27:05.680Z,21.20
2018-10-12T10:32:09.176Z,21.17
2018-10-12T10:37:12.570Z,21.13
2018-10-12T10:42:15.988Z,21.13
2018-10-12T10:47:19.404Z,21.13
2018-10-12T10:52:22.832Z,21.11
2018-10-12T10:57:26.249Z,21.13
2018-10-12T11:02:29.664Z,21.13
2018-10-12T11:07:33.082Z,21.13
2018-10-12T11:12:36.539Z,21.13
2018-10-12T11:17:39.946Z,21.16
2018-10-12T11:22:43.352Z,21.16
2018-10-12T11:27:46.768Z,21.15
2018-10-12T11:32:50.300Z,21.17
2018-10-12T11:37:53.756Z,21.19
2018-10-12T11:43:08.359Z,21.20
2018-10-12T11:48:11.781Z,21.20
2018-10-12T11:53:15.202Z,21.24
2018-10-12T11:58:18.674Z,21.24
2018-10-12T12:03:22.301Z,21.26
2018-10-12T12:08:25.736Z,21.28
2018-10-12T12:13:29.154Z,21.30
2018-10-12T12:18:32.577Z,21.32
2018-10-12T12:23:36.015Z,21.36
2018-10-12T12:28:39.510Z,21.36
2018-10-12T12:33:42.925Z,21.37
2018-10-12T12:38:46.376Z,21.38
2018-10-12T12:43:49.784Z,21.38
2018-10-12T12:48:53.648Z,21.42
2018-10-12T12:53:56.731Z,21.34
2018-10-12T12:59:00.086Z,21.44
2018-10-12T13:04:03.500Z,21.47
2018-10-12T13:09:08.205Z,21.49
2018-10-12T13:14:11.622Z,21.50
2018-10-12T13:19:15.035Z,21.53
2018-10-12T13:24:18.480Z,21.53
2018-10-12T13:29:21.900Z,21.54
2018-10-12T13:34:25.317Z,21.55
2018-10-12T13:39:28.748Z,21.57
2018-10-12T13:44:32.164Z,21.57
2018-10-12T13:49:35.572Z,21.55
2018-10-12T13:54:39.010Z,21.54
2018-10-12T13:59:42.451Z,21.54
2018-10-12T14:04:45.897Z,21.54
2018-10-12T14:09:49.341Z,21.54
2018-10-12T14:14:53.021Z,21.55
2018-10-12T14:19:56.467Z,21.52
2018-10-12T14:24:59.960Z,21.52
2018-10-12T14:30:03.541Z,21.54
2018-10-12T14:35:06.977Z,21.52
2018-10-12T14:40:10.422Z,21.52
2018-10-12T14:45:13.867Z,21.55
2018-10-12T14:50:17.297Z,21.53
2018-10-12T14:55:20.717Z,21.52
2018-10-12T15:00:24.218Z,21.50
2018-10-12T15:05:27.726Z,21.51
2018-10-12T15:10:31.109Z,21.51
2018-10-12T15:15:34.541Z,21.53
2018-10-12T15:20:37.955Z,21.53
2018-10-12T15:25:41.433Z,21.52
2018-10-12T15:30:44.811Z,21.54
2018-10-12T15:35:48.213Z,21.55
2018-10-12T15:40:51.621Z,21.69
2018-10-12T15:45:55.041Z,21.71
2018-10-12T15:50:58.492Z,21.70
2018-10-12T15:56:01.902Z,21.70
2018-10-12T16:01:05.312Z,21.67
2018-10-12T16:06:08.766Z,21.65
2018-10-12T16:11:12.152Z,21.64
2018-10-12T16:16:15.556Z,21.64
2018-10-12T16:21:18.960Z,21.64
2018-10-12T16:26:23.570Z,21.64
2018-10-12T16:31:26.995Z,21.67
2018-10-12T16:36:30.435Z,21.73
2018-10-12T16:41:33.899Z,21.76
2018-10-12T16:46:37.360Z,21.77
2018-10-12T16:51:40.792Z,21.78
2018-10-12T16:56:44.208Z,21.77
2018-10-12T17:01:47.617Z,21.73
2018-10-12T17:06:51.037Z,21.67
2018-10-12T17:11:54.459Z,21.65
2018-10-12T17:16:57.880Z,21.64
2018-10-12T17:22:01.301Z,21.63
2018-10-12T17:27:04.758Z,21.65
2018-10-12T17:32:08.213Z,21.61
2018-10-12T17:37:11.774Z,21.64
2018-10-12T17:42:17.653Z,21.64
2018-10-12T17:47:21.605Z,21.64
2018-10-12T17:52:25.187Z,21.66
2018-10-12T17:57:28.992Z,21.72
2018-10-12T18:02:32.466Z,21.72
2018-10-12T18:07:35.923Z,21.75
2018-10-12T18:12:39.425Z,21.81
2018-10-12T18:17:42.917Z,21.78
2018-10-12T18:22:46.401Z,21.80
2018-10-12T18:27:49.906Z,21.83
2018-10-12T18:32:53.539Z,21.84
2018-10-12T18:37:57.045Z,21.86
2018-10-12T18:43:00.583Z,21.85
2018-10-12T18:48:04.085Z,21.85
2018-10-12T18:53:07.473Z,21.85
2018-10-12T18:58:10.889Z,21.87
2018-10-12T19:03:14.318Z,22.04
2018-10-12T19:08:17.739Z,21.91
2018-10-12T19:13:21.205Z,21.97
2018-10-12T19:18:24.612Z,21.94
2018-10-12T19:23:28.194Z,21.98
2018-10-12T19:28:31.978Z,21.95
2018-10-12T19:33:36.366Z,21.96
2018-10-12T19:38:39.816Z,21.99
2018-10-12T19:43:43.237Z,21.96
2018-10-12T19:48:46.678Z,22.01
2018-10-12T19:53:50.106Z,22.01
2018-10-12T19:58:53.539Z,22.00
2018-10-12T20:03:56.959Z,22.04
2018-10-12T20:09:00.402Z,22.05
2018-10-12T20:14:03.916Z,22.02
2018-10-12T20:19:07.439Z,22.05
2018-10-12T20:24:11.034Z,22.08
2018-10-12T20:29:14.485Z,22.06
2018-10-12T20:34:18.034Z,22.06
2018-10-12T20:39:21.515Z,22.07
2018-10-12T20:44:25.011Z,22.07
2018-10-12T20:49:28.432Z,22.10
2018-10-12T20:54:31.920Z,22.10
2018-10-12T20:59:35.343Z,22.11
2018-10-12T21:04:39.071Z,22.12
2018-10-12T21:09:42.792Z,22.08
2018-10-12T21:14:46.478Z,22.15
2018-10-12T21:19:49.959Z,22.14
2018-10-12T21:24:53.429Z,22.12
2018-10-12T21:29:57.140Z,22.14
2018-10-12T21:35:00.931Z,22.13
2018-10-12T21:40:04.543Z,22.16
2018-10-12T21:45:08.299Z,22.15
2018-10-12T21:50:12.101Z,22.18
2018-10-12T21:55:15.878Z,22.16
2018-10-12T22:00:19.293Z,22.22
2018-10-12T22:05:23.140Z,22.23
2018-10-12T22:10:26.559Z,22.17
2018-10-12T22:15:30.040Z,22.17
2018-10-12T22:20:33.623Z,22.17
2018-10-12T22:25:37.119Z,22.17
2018-10-12T22:30:40.660Z,22.26
2018-10-12T22:35:44.188Z,22.26
2018-10-12T22:40:47.624Z,22.21
2018-10-12T22:45:51.053Z,22.20
2018-10-12T22:50:54.506Z,22.16
2018-10-12T22:55:58.044Z,22.19
2018-10-12T23:01:01.463Z,22.19
2018-10-12T23:06:04.878Z,22.18
2018-10-12T23:11:08.293Z,22.20
2018-10-12T23:16:11.712Z,22.21
2018-10-12T23:21:15.144Z,22.22
2018-10-12T23:26:18.550Z,22.22
2018-10-12T23:31:21.961Z,22.22
2018-10-12T23:36:25.381Z,22.22
2018-10-12T23:41:29.085Z,22.18
2018-10-12T23:46:32.497Z,22.13
2018-10-12T23:51:35.907Z,22.19
2018-10-12T23:56:39.328Z,22.24
